createdAt,value
2022-10-18T00:00:49.298Z,20.98
2022-10-18T00:03:16.632Z,21.01
2022-10-18T00:05:43.902Z,21.01
2022-10-18T00:08:11.240Z,21.01
2022-10-18T00:10:39.931Z,21.01
2022-10-18T00:13:07.291Z,21.00
2022-10-18T00:15:34.656Z,21.00
2022-10-18T00:18:02.169Z,21.00
2022-10-18T00:20:29.572Z,20.98
2022-10-18T00:22:57.130Z,20.97
2022-10-18T00:25:24.389Z,20.94
2022-10-18T00:27:53.004Z,20.94
2022-10-18T00:30:20.277Z,20.93
2022-10-18T00:32:47.578Z,20.94
2022-10-18T00:35:14.957Z,20.96
2022-10-18T00:37:42.285Z,20.97
2022-10-18T00:40:10.953Z,20.98
2022-10-18T00:42:38.762Z,20.98
2022-10-18T00:45:26.162Z,20.92
2022-10-18T00:47:59.901Z,20.95
2022-10-18T00:50:32.306Z,20.94
2022-10-18T00:53:04.803Z,20.93
2022-10-18T00:55:33.771Z,20.92
2022-10-18T00:58:03.601Z,20.90
2022-10-18T01:00:32.742Z,20.89
2022-10-18T01:03:00.215Z,20.87
2022-10-18T01:05:30.178Z,20.84
2022-10-18T01:08:24.044Z,20.74
2022-10-18T01:11:07.511Z,20.68
2022-10-18T01:13:56.622Z,20.60
2022-10-18T01:16:34.440Z,20.53
2022-10-18T01:19:12.116Z,20.45
2022-10-18T01:21:48.635Z,20.41
2022-10-18T01:24:55.440Z,20.33
2022-10-18T01:27:49.492Z,20.34
2022-10-18T01:30:39.231Z,20.38
2022-10-18T01:33:21.865Z,20.44
2022-10-18T01:35:57.199Z,20.48
2022-10-18T01:38:28.749Z,20.48
2022-10-18T01:40:58.158Z,20.49
2022-10-18T01:43:29.220Z,20.46
2022-10-18T01:46:00.614Z,20.45
2022-10-18T01:48:30.663Z,20.45
2022-10-18T01:50:58.450Z,20.48
2022-10-18T01:53:30.743Z,20.51
2022-10-18T01:56:20.417Z,20.50
2022-10-18T01:59:13.726Z,20.54
2022-10-18T02:01:56.085Z,20.54
2022-10-18T02:04:35.330Z,20.56
2022-10-18T02:07:17.506Z,20.54
2022-10-18T02:09:52.617Z,20.56
2022-10-18T02:12:22.774Z,20.55
2022-10-18T02:14:51.942Z,20.55
2022-10-18T02:17:25.949Z,20.50
2022-10-18T02:19:56.404Z,20.49
2022-10-18T02:22:31.523Z,20.46
2022-10-18T02:25:03.789Z,20.44
2022-10-18T02:27:31.204Z,20.45
2022-10-18T02:29:59.254Z,20.45
2022-10-18T02:32:35.267Z,20.43
2022-10-18T02:35:08.963Z,20.45
2022-10-18T02:37:39.970Z,20.45
2022-10-18T02:40:10.287Z,20.47
2022-10-18T02:42:40.435Z,20.48
2022-10-18T02:45:08.348Z,20.49
2022-10-18T02:47:37.039Z,20.49
2022-10-18T02:50:05.251Z,20.49
2022-10-18T02:52:32.538Z,20.49
2022-10-18T02:54:59.793Z,20.48
2022-10-18T02:57:27.183Z,20.49
2022-10-18T02:59:54.406Z,20.43
2022-10-18T03:02:21.974Z,20.36
2022-10-18T03:04:50.674Z,20.37
2022-10-18T03:07:17.958Z,20.38
2022-10-18T03:09:45.310Z,20.40
2022-10-18T03:12:12.951Z,20.42
2022-10-18T03:14:40.210Z,20.40
2022-10-18T03:17:07.585Z,20.39
2022-10-18T03:19:34.950Z,20.37
2022-10-18T03:22:03.534Z,20.33
2022-10-18T03:24:30.818Z,20.31
2022-10-18T03:26:58.047Z,20.30
2022-10-18T03:29:25.496Z,20.27
2022-10-18T03:31:52.818Z,20.25
2022-10-18T03:34:20.081Z,20.24
2022-10-18T03:36:47.405Z,20.23
2022-10-18T03:39:16.130Z,20.21
2022-10-18T03:41:43.408Z,20.19
2022-10-18T03:44:10.744Z,20.14
2022-10-18T03:46:37.978Z,20.07
2022-10-18T03:49:05.259Z,20.05
2022-10-18T03:51:32.597Z,20.03
2022-10-18T03:53:59.970Z,20.02
2022-10-18T03:56:28.594Z,20.03
2022-10-18T03:58:57.146Z,20.04
2022-10-18T04:01:24.514Z,19.99
2022-10-18T04:03:51.892Z,19.96
2022-10-18T04:06:19.125Z,19.93
2022-10-18T04:08:46.403Z,19.91
2022-10-18T04:11:13.941Z,19.91
2022-10-18T04:13:42.624Z,19.92
2022-10-18T04:16:10.982Z,19.91
2022-10-18T04:18:38.373Z,19.90
2022-10-18T04:21:06.069Z,19.90
2022-10-18T04:23:36.331Z,19.90
2022-10-18T04:26:06.848Z,19.90
2022-10-18T04:28:34.966Z,19.91
2022-10-18T04:31:03.636Z,19.94
2022-10-18T04:33:30.866Z,19.97
2022-10-18T04:35:58.285Z,19.98
2022-10-18T04:38:25.621Z,20.00
2022-10-18T04:40:52.921Z,20.03
2022-10-18T04:43:20.199Z,20.06
2022-10-18T04:45:48.201Z,20.07
2022-10-18T04:48:17.478Z,20.05
2022-10-18T04:50:47.503Z,20.06
2022-10-18T04:53:15.251Z,20.05
2022-10-18T04:55:45.221Z,20.05
2022-10-18T04:58:12.856Z,20.04
2022-10-18T05:00:41.154Z,20.03
2022-10-18T05:03:09.267Z,20.02
2022-10-18T05:06:00.256Z,20.07
2022-10-18T05:08:25.334Z,20.09
2022-10-18T05:10:52.684Z,20.12
2022-10-18T05:13:20.178Z,20.15
2022-10-18T05:15:47.819Z,20.16
2022-10-18T05:18:15.110Z,20.18
2022-10-18T05:20:43.790Z,20.16
2022-10-18T05:23:11.078Z,20.17
2022-10-18T05:25:39.534Z,20.15
2022-10-18T05:28:10.860Z,20.15
2022-10-18T05:30:48.463Z,20.11
2022-10-18T05:33:15.712Z,20.08
2022-10-18T05:35:44.372Z,20.05
2022-10-18T05:38:11.638Z,20.03
2022-10-18T05:40:39.666Z,20.02
2022-10-18T05:43:06.898Z,20.02
2022-10-18T05:45:34.212Z,20.04
2022-10-18T05:48:01.567Z,20.05
2022-10-18T05:50:28.825Z,20.11
2022-10-18T05:53:06.898Z,20.12
2022-10-18T05:55:39.967Z,20.12
2022-10-18T05:58:07.254Z,20.11
2022-10-18T06:00:34.616Z,20.06
2022-10-18T06:03:01.883Z,20.02
2022-10-18T06:05:29.245Z,20.01
2022-10-18T06:07:58.128Z,20.00
2022-10-18T06:10:25.771Z,20.01
2022-10-18T06:12:53.332Z,19.99
2022-10-18T06:15:20.732Z,19.99
2022-10-18T06:17:48.112Z,20.01
2022-10-18T06:20:15.661Z,20.05
2022-10-18T06:22:42.963Z,20.06
2022-10-18T06:25:11.689Z,20.06
2022-10-18T06:27:39.027Z,20.07
2022-10-18T06:30:08.460Z,20.06
2022-10-18T06:32:35.747Z,20.03
2022-10-18T06:35:03.157Z,20.04
2022-10-18T06:37:30.987Z,20.01
2022-10-18T06:39:58.430Z,20.00
2022-10-18T06:42:27.200Z,20.00
2022-10-18T06:44:54.447Z,20.04
2022-10-18T06:47:21.753Z,20.07
2022-10-18T06:49:49.052Z,20.07
2022-10-18T06:52:17.545Z,20.08
2022-10-18T06:54:45.475Z,20.09
2022-10-18T06:57:12.829Z,20.07
2022-10-18T06:59:41.438Z,20.01
2022-10-18T07:02:14.487Z,19.99
2022-10-18T07:04:41.982Z,19.98
2022-10-18T07:07:09.510Z,20.01
2022-10-18T07:09:36.918Z,20.05
2022-10-18T07:12:05.145Z,20.09
2022-10-18T07:14:32.414Z,20.15
2022-10-18T07:17:01.484Z,20.20
2022-10-18T07:19:28.942Z,20.22
2022-10-18T07:21:56.280Z,20.28
2022-10-18T07:24:23.554Z,20.31
2022-10-18T07:26:50.856Z,20.33
2022-10-18T07:29:18.118Z,20.34
2022-10-18T07:31:45.362Z,20.33
2022-10-18T07:34:14.908Z,20.33
2022-10-18T07:36:42.273Z,20.34
2022-10-18T07:39:10.359Z,20.37
2022-10-18T07:41:38.093Z,20.35
2022-10-18T07:44:05.963Z,20.34
2022-10-18T07:46:33.513Z,20.31
2022-10-18T07:49:00.940Z,20.29
2022-10-18T07:51:32.674Z,20.27
2022-10-18T07:54:00.315Z,20.25
2022-10-18T07:56:27.661Z,20.25
2022-10-18T07:58:57.061Z,20.27
2022-10-18T08:01:26.035Z,20.25
2022-10-18T08:03:53.931Z,20.25
2022-10-18T08:06:23.281Z,20.27
2022-10-18T08:08:52.786Z,20.29
2022-10-18T08:11:22.487Z,20.29
2022-10-18T08:13:50.638Z,20.27
2022-10-18T08:16:20.471Z,20.24
2022-10-18T08:18:47.954Z,20.23
2022-10-18T08:21:17.264Z,20.27
2022-10-18T08:23:45.052Z,20.29
2022-10-18T08:26:17.618Z,20.29
2022-10-18T08:28:53.718Z,20.31
2022-10-18T08:31:26.069Z,20.41
2022-10-18T08:33:57.152Z,20.56
2022-10-18T08:36:24.888Z,20.69
2022-10-18T08:38:52.261Z,20.75
2022-10-18T08:42:16.098Z,20.80
2022-10-18T08:44:48.374Z,20.95
2022-10-18T08:47:20.973Z,21.23
2022-10-18T08:49:54.286Z,21.76
2022-10-18T08:52:34.757Z,22.05
2022-10-18T08:55:10.430Z,22.14
2022-10-18T08:57:39.125Z,22.13
2022-10-18T09:00:16.391Z,21.99
2022-10-18T09:03:05.371Z,21.82
2022-10-18T09:05:45.172Z,21.84
2022-10-18T09:08:50.564Z,21.73
2022-10-18T09:11:44.414Z,21.67
2022-10-18T09:15:03.906Z,21.82
2022-10-18T09:17:50.180Z,22.18
2022-10-18T09:20:37.700Z,22.61
2022-10-18T09:23:22.863Z,23.49
2022-10-18T09:26:01.561Z,24.40
2022-10-18T09:28:44.947Z,25.23
2022-10-18T09:31:22.074Z,26.05
2022-10-18T09:33:58.167Z,26.84
2022-10-18T09:36:35.619Z,27.39
2022-10-18T09:39:10.961Z,27.55
2022-10-18T09:41:47.408Z,27.78
2022-10-18T09:44:22.176Z,27.99
2022-10-18T09:46:56.667Z,28.13
2022-10-18T09:49:31.891Z,28.16
2022-10-18T09:52:07.414Z,27.91
2022-10-18T09:54:44.021Z,27.66
2022-10-18T09:57:21.753Z,27.44
2022-10-18T09:59:50.755Z,27.26
2022-10-18T10:02:22.000Z,27.09
2022-10-18T10:04:52.172Z,26.96
2022-10-18T10:07:23.954Z,26.81
2022-10-18T10:09:59.588Z,26.66
2022-10-18T10:12:31.464Z,26.57
2022-10-18T10:15:18.192Z,26.35
2022-10-18T10:17:54.673Z,26.18
2022-10-18T10:20:29.171Z,26.01
2022-10-18T10:23:14.199Z,25.85
2022-10-18T10:25:42.958Z,25.71
2022-10-18T10:28:18.353Z,25.43
2022-10-18T10:30:45.841Z,25.09
2022-10-18T10:33:37.003Z,24.68
2022-10-18T10:36:17.088Z,24.50
2022-10-18T10:38:44.718Z,24.35
2022-10-18T10:41:21.525Z,24.20
2022-10-18T10:43:50.595Z,24.08
2022-10-18T10:46:23.387Z,24.00
2022-10-18T10:49:08.460Z,24.04
2022-10-18T10:51:44.485Z,23.97
2022-10-18T10:54:16.917Z,23.92
2022-10-18T10:56:58.055Z,23.89
2022-10-18T10:59:28.915Z,24.27
2022-10-18T11:02:21.956Z,25.12
2022-10-18T11:04:51.556Z,26.07
2022-10-18T11:07:27.890Z,27.30
2022-10-18T11:10:06.433Z,28.34
2022-10-18T11:12:39.801Z,28.77
2022-10-18T11:15:21.296Z,28.88
2022-10-18T11:18:04.415Z,28.68
2022-10-18T11:20:38.545Z,28.69
2022-10-18T11:23:11.444Z,28.26
2022-10-18T11:26:03.090Z,27.49
2022-10-18T11:28:55.339Z,27.00
2022-10-18T11:31:32.605Z,26.51
2022-10-18T11:34:21.526Z,26.04
2022-10-18T11:37:26.695Z,25.55
2022-10-18T11:40:07.170Z,25.09
2022-10-18T11:42:47.546Z,24.75
2022-10-18T11:45:32.285Z,24.43
2022-10-18T11:48:18.244Z,24.20
2022-10-18T11:50:54.835Z,24.01
2022-10-18T11:53:38.016Z,23.81
2022-10-18T11:56:25.172Z,23.62
2022-10-18T11:59:15.857Z,23.48
2022-10-18T12:02:03.774Z,23.33
2022-10-18T12:04:49.005Z,23.32
2022-10-18T12:07:32.509Z,23.32
2022-10-18T12:10:03.355Z,23.34
2022-10-18T12:12:38.844Z,23.33
2022-10-18T12:15:18.144Z,23.46
2022-10-18T12:17:50.486Z,23.56
2022-10-18T12:20:27.145Z,23.65
2022-10-18T12:23:02.802Z,23.71
2022-10-18T12:25:35.608Z,23.71
2022-10-18T12:28:16.275Z,23.64
2022-10-18T12:30:57.780Z,23.77
2022-10-18T12:33:35.442Z,24.60
2022-10-18T12:36:24.317Z,25.29
2022-10-18T12:38:57.334Z,25.27
2022-10-18T12:41:29.196Z,25.06
2022-10-18T12:44:04.868Z,24.93
2022-10-18T12:46:48.214Z,24.89
2022-10-18T12:49:24.388Z,24.82
2022-10-18T12:51:58.061Z,24.63
2022-10-18T12:54:29.550Z,24.46
2022-10-18T12:56:58.083Z,24.38
2022-10-18T12:59:50.968Z,24.40
2022-10-18T13:02:31.119Z,24.62
2022-10-18T13:05:00.649Z,24.71
2022-10-18T13:07:43.095Z,24.68
2022-10-18T13:10:36.004Z,24.89
2022-10-18T13:13:39.820Z,24.81
2022-10-18T13:16:36.587Z,24.66
2022-10-18T13:19:23.125Z,24.68
2022-10-18T13:22:12.506Z,24.54
2022-10-18T13:24:46.930Z,24.30
2022-10-18T13:27:35.880Z,24.09
2022-10-18T13:30:31.910Z,23.84
2022-10-18T13:33:25.116Z,23.80
2022-10-18T13:35:57.362Z,24.00
2022-10-18T13:38:47.306Z,24.20
2022-10-18T13:41:19.447Z,24.18
2022-10-18T13:44:11.542Z,23.94
2022-10-18T13:47:16.300Z,23.74
2022-10-18T13:50:26.887Z,23.59
2022-10-18T13:53:41.863Z,23.43
2022-10-18T13:56:33.551Z,23.34
2022-10-18T14:02:51.571Z,23.06
2022-10-18T14:05:50.057Z,22.95
2022-10-18T14:08:27.135Z,22.90
2022-10-18T14:11:04.360Z,22.83
2022-10-18T14:13:42.675Z,22.75
2022-10-18T14:16:30.882Z,22.66
2022-10-18T14:19:17.751Z,22.61
2022-10-18T14:21:56.714Z,22.57
2022-10-18T14:24:27.619Z,22.58
2022-10-18T14:27:17.836Z,22.49
2022-10-18T14:29:46.240Z,22.44
2022-10-18T14:32:26.234Z,22.34
2022-10-18T14:35:09.177Z,22.30
2022-10-18T14:37:43.791Z,22.26
2022-10-18T14:40:32.190Z,22.19
2022-10-18T14:43:04.967Z,22.18
2022-10-18T14:45:32.249Z,22.15
2022-10-18T14:48:14.236Z,22.10
2022-10-18T14:50:44.465Z,22.08
2022-10-18T14:53:25.089Z,22.07
2022-10-18T14:56:00.675Z,22.05
2022-10-18T14:58:28.715Z,22.07
2022-10-18T15:00:56.490Z,22.05
2022-10-18T15:03:24.580Z,22.02
2022-10-18T15:05:55.547Z,21.98
2022-10-18T15:08:26.909Z,21.95
2022-10-18T15:10:54.838Z,21.93
2022-10-18T15:13:23.124Z,21.92
2022-10-18T15:15:51.202Z,21.90
2022-10-18T15:18:23.157Z,21.86
2022-10-18T15:21:10.709Z,21.78
2022-10-18T15:23:39.848Z,21.76
2022-10-18T15:26:15.137Z,21.70
2022-10-18T15:28:52.449Z,21.67
2022-10-18T15:31:26.534Z,21.59
2022-10-18T15:34:08.337Z,21.55
2022-10-18T15:36:36.193Z,21.51
2022-10-18T15:39:16.378Z,21.45
2022-10-18T15:41:50.242Z,21.44
2022-10-18T15:44:26.343Z,21.43
2022-10-18T15:46:57.043Z,21.44
2022-10-18T15:50:00.795Z,21.35
2022-10-18T15:52:39.321Z,21.37
2022-10-18T15:55:57.720Z,21.26
2022-10-18T15:58:27.623Z,21.27
2022-10-18T16:00:59.153Z,21.23
2022-10-18T16:03:27.760Z,21.20
2022-10-18T16:06:02.797Z,21.17
2022-10-18T16:08:31.894Z,21.15
2022-10-18T16:11:00.742Z,21.12
2022-10-18T16:13:28.378Z,21.11
2022-10-18T16:15:56.039Z,21.11
2022-10-18T16:18:25.873Z,21.10
2022-10-18T16:20:53.843Z,21.12
2022-10-18T16:23:23.909Z,21.13
2022-10-18T16:25:51.728Z,21.13
2022-10-18T16:28:23.792Z,21.09
2022-10-18T16:30:57.548Z,21.07
2022-10-18T16:33:25.832Z,21.07
2022-10-18T16:35:54.587Z,21.07
2022-10-18T16:38:32.828Z,21.03
2022-10-18T16:41:04.221Z,21.02
2022-10-18T16:43:34.981Z,20.96
2022-10-18T16:46:03.783Z,20.93
2022-10-18T16:48:31.179Z,20.91
2022-10-18T16:50:59.201Z,20.90
2022-10-18T16:53:41.625Z,20.89
2022-10-18T16:56:15.914Z,20.84
2022-10-18T16:58:45.976Z,20.84
2022-10-18T17:01:19.828Z,20.83
2022-10-18T17:03:48.538Z,20.79
2022-10-18T17:06:18.704Z,20.78
2022-10-18T17:08:46.019Z,20.76
2022-10-18T17:11:15.136Z,20.78
2022-10-18T17:13:45.159Z,20.79
2022-10-18T17:16:24.071Z,20.80
2022-10-18T17:18:52.108Z,20.85
2022-10-18T17:21:20.915Z,20.87
2022-10-18T17:23:49.054Z,20.87
2022-10-18T17:26:37.095Z,20.83
2022-10-18T17:29:08.356Z,20.83
2022-10-18T17:31:36.316Z,20.83
2022-10-18T17:34:04.250Z,20.84
2022-10-18T17:36:33.542Z,20.83
2022-10-18T17:39:00.886Z,20.80
2022-10-18T17:41:28.242Z,20.78
2022-10-18T17:43:55.526Z,20.76
2022-10-18T17:46:24.346Z,20.74
2022-10-18T17:48:51.890Z,20.71
2022-10-18T17:51:19.413Z,20.66
2022-10-18T17:53:47.154Z,20.65
2022-10-18T17:56:15.668Z,20.65
2022-10-18T17:58:43.663Z,20.65
2022-10-18T18:01:13.701Z,20.65
2022-10-18T18:03:42.950Z,20.64
2022-10-18T18:06:19.376Z,20.59
2022-10-18T18:08:48.455Z,20.58
2022-10-18T18:11:17.579Z,20.58
2022-10-18T18:13:44.976Z,20.57
2022-10-18T18:16:16.295Z,20.56
2022-10-18T18:18:46.410Z,20.56
2022-10-18T18:21:14.167Z,20.57
2022-10-18T18:23:41.522Z,20.58
2022-10-18T18:26:08.875Z,20.56
2022-10-18T18:28:36.709Z,20.55
2022-10-18T18:31:07.378Z,20.51
2022-10-18T18:33:35.116Z,20.49
2022-10-18T18:36:05.316Z,20.47
2022-10-18T18:38:34.957Z,20.42
2022-10-18T18:41:07.634Z,20.37
2022-10-18T18:43:35.899Z,20.33
2022-10-18T18:46:03.708Z,20.28
2022-10-18T18:48:33.801Z,20.27
2022-10-18T18:51:01.375Z,20.25
2022-10-18T18:53:30.489Z,20.25
2022-10-18T18:56:07.169Z,20.22
2022-10-18T18:58:37.774Z,20.21
2022-10-18T19:04:00.218Z,20.19
2022-10-18T19:06:30.565Z,20.15
2022-10-18T19:09:01.513Z,20.14
2022-10-18T19:11:32.596Z,20.12
2022-10-18T19:14:00.606Z,20.13
2022-10-18T19:16:30.667Z,20.13
2022-10-18T19:19:01.975Z,20.17
2022-10-18T19:21:32.619Z,20.22
2022-10-18T19:24:00.108Z,20.22
2022-10-18T19:26:35.145Z,20.19
2022-10-18T19:29:07.551Z,20.14
2022-10-18T19:31:35.673Z,20.10
2022-10-18T19:34:07.510Z,20.06
2022-10-18T19:36:36.079Z,20.04
2022-10-18T19:39:05.777Z,20.02
2022-10-18T19:41:33.202Z,20.02
2022-10-18T19:44:00.558Z,20.01
2022-10-18T19:46:27.877Z,19.99
2022-10-18T19:48:55.149Z,20.00
2022-10-18T19:51:27.039Z,20.02
2022-10-18T19:53:57.459Z,20.00
2022-10-18T19:56:26.452Z,19.98
2022-10-18T19:58:54.534Z,19.98
2022-10-18T20:01:21.902Z,19.99
2022-10-18T20:03:49.415Z,20.00
2022-10-18T20:06:16.923Z,20.00
2022-10-18T20:08:45.939Z,20.02
2022-10-18T20:11:16.969Z,20.03
2022-10-18T20:13:44.439Z,20.04
2022-10-18T20:16:14.530Z,20.04
2022-10-18T20:18:44.913Z,20.01
2022-10-18T20:21:16.678Z,20.00
2022-10-18T20:23:45.758Z,19.98
2022-10-18T20:26:18.166Z,19.96
2022-10-18T20:28:48.946Z,19.93
2022-10-18T20:31:18.996Z,19.93
2022-10-18T20:33:48.194Z,19.93
2022-10-18T20:36:18.055Z,19.93
2022-10-18T20:38:48.798Z,19.90
2022-10-18T20:41:19.338Z,19.87
2022-10-18T20:43:52.147Z,19.84
2022-10-18T20:46:20.266Z,19.84
2022-10-18T20:48:49.195Z,19.87
2022-10-18T20:51:17.206Z,19.88
2022-10-18T20:53:46.340Z,19.90
2022-10-18T20:56:16.333Z,19.92
2022-10-18T20:58:45.753Z,19.89
2022-10-18T21:01:16.589Z,19.87
2022-10-18T21:03:46.451Z,19.86
2022-10-18T21:06:17.615Z,19.85
2022-10-18T21:08:47.096Z,19.82
2022-10-18T21:11:15.328Z,19.78
2022-10-18T21:13:42.652Z,19.74
2022-10-18T21:16:09.991Z,19.75
2022-10-18T21:18:40.278Z,19.78
2022-10-18T21:21:10.317Z,19.80
2022-10-18T21:23:38.063Z,19.84
2022-10-18T21:26:08.043Z,19.86
2022-10-18T21:28:35.775Z,19.85
2022-10-18T21:31:12.757Z,19.81
2022-10-18T21:33:40.993Z,19.83
2022-10-18T21:36:08.911Z,19.80
2022-10-18T21:38:37.097Z,19.78
2022-10-18T21:41:11.094Z,19.77
2022-10-18T21:43:41.455Z,19.76
2022-10-18T21:46:10.208Z,19.73
2022-10-18T21:48:38.729Z,19.71
2022-10-18T21:51:08.202Z,19.69
2022-10-18T21:53:36.232Z,19.64
2022-10-18T21:56:11.047Z,19.56
2022-10-18T21:58:39.312Z,19.51
2022-10-18T22:01:08.477Z,19.47
2022-10-18T22:03:36.295Z,19.44
2022-10-18T22:06:13.662Z,19.39
2022-10-18T22:08:42.077Z,19.34
2022-10-18T22:11:12.996Z,19.27
2022-10-18T22:13:41.422Z,19.22
2022-10-18T22:16:12.053Z,19.16
2022-10-18T22:18:39.489Z,19.10
2022-10-18T22:21:10.017Z,19.01
2022-10-18T22:23:40.290Z,18.94
2022-10-18T22:26:12.338Z,18.89
2022-10-18T22:28:40.712Z,18.87
2022-10-18T22:31:15.025Z,18.81
2022-10-18T22:33:42.679Z,18.82
2022-10-18T22:36:10.053Z,18.82
2022-10-18T22:38:37.860Z,18.82
2022-10-18T22:41:06.963Z,18.82
2022-10-18T22:43:36.509Z,18.80
2022-10-18T22:46:05.855Z,18.77
2022-10-18T22:48:33.381Z,18.75
2022-10-18T22:51:01.364Z,18.70
2022-10-18T22:53:29.233Z,18.67
2022-10-18T22:55:56.562Z,18.62
2022-10-18T22:58:23.786Z,18.59
2022-10-18T23:01:01.544Z,18.55
2022-10-18T23:03:28.933Z,18.53
2022-10-18T23:05:57.129Z,18.53
2022-10-18T23:08:24.752Z,18.52
2022-10-18T23:10:57.134Z,18.49
2022-10-18T23:13:26.642Z,18.48
2022-10-18T23:16:04.472Z,18.46
2022-10-18T23:18:33.247Z,18.44
2022-10-18T23:21:03.130Z,18.42
2022-10-18T23:23:34.873Z,18.42
2022-10-18T23:26:04.639Z,18.43
2022-10-18T23:28:35.370Z,18.42
2022-10-18T23:31:09.060Z,18.43
2022-10-18T23:33:36.741Z,18.44
2022-10-18T23:36:05.561Z,18.46
2022-10-18T23:38:33.642Z,18.50
2022-10-18T23:41:00.940Z,18.50
2022-10-18T23:43:28.239Z,18.54
2022-10-18T23:45:55.532Z,18.54
2022-10-18T23:48:24.531Z,18.55
2022-10-18T23:50:52.235Z,18.55
2022-10-18T23:53:20.031Z,18.55
2022-10-18T23:55:53.748Z,18.55
2022-10-18T23:58:21.650Z,18.54
